createdAt,value
2018-09-28T00:00:44.000Z,26
2018-09-28T00:01:44.000Z,26
2018-09-28T00:03:44.000Z,26
2018-09-28T00:04:44.000Z,26
2018-09-28T00:05:44.000Z,26
2018-09-28T00:06:44.000Z,26
2018-09-28T00:07:44.000Z,26
2018-09-28T00:08:44.000Z,26
2018-09-28T00:09:44.000Z,25
2018-09-28T00:10:44.000Z,26
2018-09-28T00:11:44.000Z,26
2018-09-28T00:12:44.000Z,26
2018-09-28T00:13:44.000Z,25
2018-09-28T00:14:44.000Z,26
2018-09-28T00:15:44.000Z,25
2018-09-28T00:16:44.000Z,26
2018-09-28T00:17:44.000Z,26
2018-09-28T00:18:44.000Z,26
2018-09-28T00:20:44.000Z,26
2018-09-28T00:21:44.000Z,26
2018-09-28T00:22:44.000Z,25
2018-09-28T00:23:44.000Z,26
2018-09-28T00:24:44.000Z,26
2018-09-28T00:25:44.000Z,26
2018-09-28T00:27:44.000Z,26
2018-09-28T00:28:44.000Z,26
2018-09-28T00:29:44.000Z,26
2018-09-28T00:30:44.000Z,26
2018-09-28T00:31:44.000Z,26
2018-09-28T00:32:44.000Z,26
2018-09-28T00:34:44.000Z,26
2018-09-28T00:35:44.000Z,26
2018-09-28T00:36:44.000Z,26
2018-09-28T00:37:44.000Z,26
2018-09-28T00:39:44.000Z,26
2018-09-28T00:40:44.000Z,26
2018-09-28T00:41:44.000Z,26
2018-09-28T00:42:44.000Z,26
2018-09-28T00:43:44.000Z,26
2018-09-28T00:44:44.000Z,26
2018-09-28T00:46:44.000Z,26
2018-09-28T00:47:44.000Z,26
2018-09-28T00:49:44.000Z,25
2018-09-28T00:50:44.000Z,26
2018-09-28T00:51:44.000Z,26
2018-09-28T00:52:44.000Z,26
2018-09-28T00:53:44.000Z,26
2018-09-28T00:55:44.000Z,26
2018-09-28T00:56:44.000Z,26
2018-09-28T00:58:44.000Z,26
2018-09-28T00:59:44.000Z,26
2018-09-28T01:00:44.000Z,26
2018-09-28T01:01:44.000Z,26
2018-09-28T01:02:44.000Z,26
2018-09-28T01:04:44.000Z,26
2018-09-28T01:05:44.000Z,26
2018-09-28T01:06:44.000Z,26
2018-09-28T01:07:44.000Z,26
2018-09-28T01:08:44.000Z,26
2018-09-28T01:09:44.000Z,26
2018-09-28T01:10:44.000Z,26
2018-09-28T01:11:44.000Z,26
2018-09-28T01:12:44.000Z,26
2018-09-28T01:13:44.000Z,26
2018-09-28T01:14:44.000Z,26
2018-09-28T01:15:44.000Z,26
2018-09-28T01:16:44.000Z,26
2018-09-28T01:18:44.000Z,26
2018-09-28T01:19:44.000Z,26
2018-09-28T01:21:44.000Z,26
2018-09-28T01:22:44.000Z,26
2018-09-28T01:23:44.000Z,26
2018-09-28T01:24:44.000Z,26
2018-09-28T01:25:44.000Z,26
2018-09-28T01:26:44.000Z,26
2018-09-28T01:28:44.000Z,26
2018-09-28T01:29:44.000Z,26
2018-09-28T01:30:44.000Z,26
2018-09-28T01:31:44.000Z,26
2018-09-28T01:32:44.000Z,26
2018-09-28T01:33:44.000Z,26
2018-09-28T01:34:44.000Z,26
2018-09-28T01:36:44.000Z,26
2018-09-28T01:38:44.000Z,26
2018-09-28T01:39:44.000Z,26
2018-09-28T01:40:44.000Z,26
2018-09-28T01:41:44.000Z,26
2018-09-28T01:43:44.000Z,26
2018-09-28T01:44:44.000Z,26
2018-09-28T01:45:44.000Z,26
2018-09-28T01:46:44.000Z,26
2018-09-28T01:47:44.000Z,26
2018-09-28T01:49:44.000Z,26
2018-09-28T01:50:44.000Z,26
2018-09-28T01:51:44.000Z,26
2018-09-28T01:52:44.000Z,26
2018-09-28T01:53:44.000Z,26
2018-09-28T01:54:44.000Z,26
2018-09-28T01:56:44.000Z,26
2018-09-28T01:57:44.000Z,26
2018-09-28T01:58:44.000Z,26
2018-09-28T01:59:44.000Z,26
2018-09-28T02:01:44.000Z,26
2018-09-28T02:02:44.000Z,26
2018-09-28T02:03:44.000Z,26
2018-09-28T02:04:44.000Z,26
2018-09-28T02:06:44.000Z,26
2018-09-28T02:07:44.000Z,26
2018-09-28T02:08:44.000Z,26
2018-09-28T02:09:44.000Z,26
2018-09-28T02:10:44.000Z,26
2018-09-28T02:11:44.000Z,26
2018-09-28T02:12:44.000Z,26
2018-09-28T02:13:44.000Z,26
2018-09-28T02:14:44.000Z,26
2018-09-28T02:16:44.000Z,26
2018-09-28T02:17:44.000Z,26
2018-09-28T02:18:44.000Z,26
2018-09-28T02:19:44.000Z,26
2018-09-28T02:20:44.000Z,26
2018-09-28T02:21:44.000Z,26
2018-09-28T02:22:44.000Z,26
2018-09-28T02:23:44.000Z,26
2018-09-28T02:25:44.000Z,26
2018-09-28T02:26:44.000Z,26
2018-09-28T02:27:44.000Z,26
2018-09-28T02:28:44.000Z,26
2018-09-28T02:29:44.000Z,26
2018-09-28T02:30:44.000Z,26
2018-09-28T02:31:44.000Z,26
2018-09-28T02:32:44.000Z,26
2018-09-28T02:34:44.000Z,26
2018-09-28T02:35:44.000Z,26
2018-09-28T02:36:44.000Z,26
2018-09-28T02:37:44.000Z,26
2018-09-28T02:38:44.000Z,26
2018-09-28T02:40:44.000Z,26
2018-09-28T02:42:44.000Z,26
2018-09-28T02:43:44.000Z,26
2018-09-28T02:44:44.000Z,26
2018-09-28T02:45:44.000Z,26
2018-09-28T02:46:44.000Z,26
2018-09-28T02:47:44.000Z,26
2018-09-28T02:48:44.000Z,26
2018-09-28T02:49:44.000Z,26
2018-09-28T02:50:44.000Z,26
2018-09-28T02:51:44.000Z,26
2018-09-28T02:52:44.000Z,26
2018-09-28T02:53:44.000Z,26
2018-09-28T02:54:44.000Z,26
2018-09-28T02:55:44.000Z,26
2018-09-28T02:56:44.000Z,26
2018-09-28T02:57:44.000Z,26
2018-09-28T02:58:44.000Z,26
2018-09-28T02:59:44.000Z,26
2018-09-28T03:00:44.000Z,26
2018-09-28T03:01:44.000Z,26
2018-09-28T03:02:44.000Z,26
2018-09-28T03:03:44.000Z,26
2018-09-28T03:04:44.000Z,26
2018-09-28T03:05:44.000Z,26
2018-09-28T03:06:44.000Z,26
2018-09-28T03:07:44.000Z,26
2018-09-28T03:08:44.000Z,26
2018-09-28T03:10:44.000Z,26
2018-09-28T03:11:44.000Z,26
2018-09-28T03:12:44.000Z,26
2018-09-28T03:13:44.000Z,26
2018-09-28T03:14:44.000Z,26
2018-09-28T03:16:44.000Z,26
2018-09-28T03:17:44.000Z,26
2018-09-28T03:18:44.000Z,26
2018-09-28T03:20:44.000Z,26
2018-09-28T03:21:44.000Z,26
2018-09-28T03:22:44.000Z,26
2018-09-28T03:23:44.000Z,26
2018-09-28T03:24:44.000Z,26
2018-09-28T03:26:44.000Z,26
2018-09-28T03:27:44.000Z,26
2018-09-28T03:28:44.000Z,26
2018-09-28T03:29:44.000Z,26
2018-09-28T03:30:44.000Z,26
2018-09-28T03:31:44.000Z,26
2018-09-28T03:32:44.000Z,26
2018-09-28T03:33:44.000Z,26
2018-09-28T03:34:44.000Z,26
2018-09-28T03:35:44.000Z,26
2018-09-28T03:36:44.000Z,26
2018-09-28T03:37:44.000Z,26
2018-09-28T03:38:44.000Z,26
2018-09-28T03:40:44.000Z,26
2018-09-28T03:41:44.000Z,26
2018-09-28T03:42:44.000Z,26
2018-09-28T03:43:44.000Z,26
2018-09-28T03:44:44.000Z,26
2018-09-28T03:45:44.000Z,26
2018-09-28T03:46:44.000Z,26
2018-09-28T03:47:44.000Z,26
2018-09-28T03:49:44.000Z,26
2018-09-28T03:50:44.000Z,26
2018-09-28T03:51:44.000Z,26
2018-09-28T03:52:44.000Z,26
2018-09-28T03:53:44.000Z,26
2018-09-28T03:54:44.000Z,26
2018-09-28T03:55:44.000Z,26
2018-09-28T03:56:44.000Z,26
2018-09-28T03:57:44.000Z,26
2018-09-28T03:59:44.000Z,26
2018-09-28T04:01:44.000Z,26
2018-09-28T04:02:44.000Z,26
2018-09-28T04:03:44.000Z,26
2018-09-28T04:04:44.000Z,26
2018-09-28T04:05:44.000Z,26
2018-09-28T04:06:44.000Z,26
2018-09-28T04:07:44.000Z,26
2018-09-28T04:08:44.000Z,26
2018-09-28T04:09:44.000Z,26
2018-09-28T04:10:44.000Z,26
2018-09-28T04:11:44.000Z,26
2018-09-28T04:12:44.000Z,26
2018-09-28T04:14:44.000Z,26
2018-09-28T04:15:44.000Z,26
2018-09-28T04:16:44.000Z,26
2018-09-28T04:18:44.000Z,26
2018-09-28T04:19:44.000Z,26
2018-09-28T04:20:44.000Z,26
2018-09-28T04:21:44.000Z,26
2018-09-28T04:22:44.000Z,26
2018-09-28T04:23:44.000Z,26
2018-09-28T04:24:44.000Z,26
2018-09-28T04:25:44.000Z,26
2018-09-28T04:26:44.000Z,26
2018-09-28T04:27:44.000Z,26
2018-09-28T04:28:44.000Z,26
2018-09-28T04:29:44.000Z,27
2018-09-28T04:30:44.000Z,27
2018-09-28T04:31:44.000Z,27
2018-09-28T04:32:44.000Z,27
2018-09-28T04:33:44.000Z,27
2018-09-28T04:34:44.000Z,27
2018-09-28T04:36:43.000Z,27
2018-09-28T04:37:43.000Z,27
2018-09-28T04:38:43.000Z,27
2018-09-28T04:39:43.000Z,27
2018-09-28T04:40:43.000Z,27
2018-09-28T04:41:43.000Z,27
2018-09-28T04:43:43.000Z,27
2018-09-28T04:44:43.000Z,27
2018-09-28T04:46:43.000Z,27
2018-09-28T04:47:43.000Z,28
2018-09-28T04:49:43.000Z,28
2018-09-28T04:50:43.000Z,28
2018-09-28T04:51:43.000Z,28
2018-09-28T04:52:43.000Z,28
2018-09-28T04:53:43.000Z,28
2018-09-28T04:54:43.000Z,28
2018-09-28T04:55:43.000Z,28
2018-09-28T04:56:43.000Z,28
2018-09-28T04:57:43.000Z,28
2018-09-28T04:59:43.000Z,28
2018-09-28T05:00:43.000Z,28
2018-09-28T05:01:43.000Z,28
2018-09-28T05:02:43.000Z,28
2018-09-28T05:03:43.000Z,28
2018-09-28T05:05:43.000Z,28
2018-09-28T05:06:43.000Z,28
2018-09-28T05:07:43.000Z,28
2018-09-28T05:09:43.000Z,28
2018-09-28T05:10:43.000Z,28
2018-09-28T05:11:43.000Z,28
2018-09-28T05:12:43.000Z,28
2018-09-28T05:13:43.000Z,28
2018-09-28T05:15:43.000Z,28
2018-09-28T05:16:43.000Z,28
2018-09-28T05:17:43.000Z,28
2018-09-28T05:18:43.000Z,28
2018-09-28T05:19:43.000Z,28
2018-09-28T05:20:43.000Z,28
2018-09-28T05:21:43.000Z,28
2018-09-28T05:22:43.000Z,28
2018-09-28T05:23:43.000Z,28
2018-09-28T05:24:43.000Z,28
2018-09-28T05:25:43.000Z,28
2018-09-28T05:27:43.000Z,28
2018-09-28T05:28:43.000Z,28
2018-09-28T05:29:43.000Z,28
2018-09-28T05:30:43.000Z,28
2018-09-28T05:31:43.000Z,28
2018-09-28T05:32:43.000Z,28
2018-09-28T05:34:43.000Z,28
2018-09-28T05:35:43.000Z,28
2018-09-28T05:36:43.000Z,28
2018-09-28T05:37:43.000Z,28
2018-09-28T05:38:44.000Z,28
2018-09-28T05:40:44.000Z,28
2018-09-28T05:41:44.000Z,28
2018-09-28T05:42:44.000Z,28
2018-09-28T05:43:44.000Z,28
2018-09-28T05:45:44.000Z,28
2018-09-28T05:46:44.000Z,28
2018-09-28T05:47:44.000Z,28
2018-09-28T05:48:44.000Z,28
2018-09-28T05:49:44.000Z,28
2018-09-28T05:50:44.000Z,28
2018-09-28T05:51:44.000Z,28
2018-09-28T05:52:44.000Z,28
2018-09-28T05:53:44.000Z,28
2018-09-28T05:55:44.000Z,28
2018-09-28T05:56:44.000Z,28
2018-09-28T05:57:44.000Z,28
2018-09-28T05:58:44.000Z,28
2018-09-28T05:59:44.000Z,28
2018-09-28T06:00:44.000Z,28
2018-09-28T06:01:44.000Z,28
2018-09-28T06:02:44.000Z,28
2018-09-28T06:03:44.000Z,28
2018-09-28T06:04:44.000Z,28
2018-09-28T06:05:44.000Z,28
2018-09-28T06:06:44.000Z,28
2018-09-28T06:07:44.000Z,29
2018-09-28T06:08:44.000Z,29
2018-09-28T06:09:44.000Z,29
2018-09-28T06:10:44.000Z,29
2018-09-28T06:11:44.000Z,30
2018-09-28T06:12:44.000Z,30
2018-09-28T06:13:44.000Z,30
2018-09-28T06:14:44.000Z,30
2018-09-28T06:15:44.000Z,31
2018-09-28T06:16:44.000Z,31
2018-09-28T06:17:44.000Z,31
2018-09-28T06:18:44.000Z,31
2018-09-28T06:19:44.000Z,31
2018-09-28T06:21:44.000Z,31
2018-09-28T06:22:44.000Z,32
2018-09-28T06:23:44.000Z,32
2018-09-28T06:25:44.000Z,32
2018-09-28T06:26:44.000Z,32
2018-09-28T06:27:44.000Z,32
2018-09-28T06:28:44.000Z,33
2018-09-28T06:29:44.000Z,33
2018-09-28T06:30:44.000Z,33
2018-09-28T06:31:44.000Z,33
2018-09-28T06:32:44.000Z,33
2018-09-28T06:34:44.000Z,33
2018-09-28T06:35:44.000Z,33
2018-09-28T06:36:44.000Z,33
2018-09-28T06:37:44.000Z,34
2018-09-28T06:38:44.000Z,34
2018-09-28T06:39:44.000Z,34
2018-09-28T06:40:44.000Z,34
2018-09-28T06:41:44.000Z,34
2018-09-28T06:42:44.000Z,34
2018-09-28T06:43:44.000Z,34
2018-09-28T06:44:44.000Z,34
2018-09-28T06:45:44.000Z,34
2018-09-28T06:46:44.000Z,34
2018-09-28T06:47:44.000Z,34
2018-09-28T06:48:44.000Z,34
2018-09-28T06:49:44.000Z,34
2018-09-28T06:50:44.000Z,34
2018-09-28T06:51:44.000Z,34
2018-09-28T06:52:44.000Z,34
2018-09-28T06:53:44.000Z,34
2018-09-28T06:54:44.000Z,34
2018-09-28T06:55:44.000Z,34
2018-09-28T06:57:44.000Z,34
2018-09-28T06:58:44.000Z,35
2018-09-28T06:59:44.000Z,35
2018-09-28T07:00:44.000Z,35
2018-09-28T07:01:44.000Z,35
2018-09-28T07:03:44.000Z,35
2018-09-28T07:04:44.000Z,35
2018-09-28T07:05:44.000Z,35
2018-09-28T07:06:44.000Z,35
2018-09-28T07:07:44.000Z,35
2018-09-28T07:08:44.000Z,35
2018-09-28T07:09:44.000Z,35
2018-09-28T07:10:44.000Z,35
2018-09-28T07:11:44.000Z,35
2018-09-28T07:13:44.000Z,35
2018-09-28T07:14:44.000Z,35
2018-09-28T07:15:44.000Z,35
2018-09-28T07:16:44.000Z,35
2018-09-28T07:18:44.000Z,35
2018-09-28T07:19:44.000Z,36
2018-09-28T07:20:44.000Z,35
2018-09-28T07:21:44.000Z,36
2018-09-28T07:22:44.000Z,36
2018-09-28T07:23:44.000Z,36
2018-09-28T07:24:44.000Z,36
2018-09-28T07:25:44.000Z,36
2018-09-28T07:26:44.000Z,36
2018-09-28T07:27:44.000Z,36
2018-09-28T07:28:44.000Z,36
2018-09-28T07:29:44.000Z,36
2018-09-28T07:30:44.000Z,36
2018-09-28T07:31:44.000Z,36
2018-09-28T07:32:44.000Z,36
2018-09-28T07:33:44.000Z,36
2018-09-28T07:35:44.000Z,36
2018-09-28T07:36:44.000Z,36
2018-09-28T07:37:44.000Z,36
2018-09-28T07:38:44.000Z,36
2018-09-28T07:39:44.000Z,36
2018-09-28T07:40:44.000Z,36
2018-09-28T07:41:44.000Z,36
2018-09-28T07:42:44.000Z,36
2018-09-28T07:43:44.000Z,36
2018-09-28T07:44:44.000Z,36
2018-09-28T07:46:43.000Z,36
2018-09-28T07:47:43.000Z,36
2018-09-28T07:48:43.000Z,36
2018-09-28T07:49:43.000Z,36
2018-09-28T07:50:43.000Z,36
2018-09-28T07:51:43.000Z,36
2018-09-28T07:52:43.000Z,36
2018-09-28T07:53:43.000Z,36
2018-09-28T07:54:43.000Z,36
2018-09-28T07:55:43.000Z,36
2018-09-28T07:56:43.000Z,36
2018-09-28T07:57:43.000Z,36
2018-09-28T07:58:43.000Z,36
2018-09-28T08:00:43.000Z,36
2018-09-28T08:01:43.000Z,36
2018-09-28T08:02:43.000Z,36
2018-09-28T08:03:43.000Z,36
2018-09-28T08:04:43.000Z,36
2018-09-28T08:05:43.000Z,36
2018-09-28T08:06:43.000Z,37
2018-09-28T08:07:43.000Z,36
2018-09-28T08:08:43.000Z,36
2018-09-28T08:09:43.000Z,36
2018-09-28T08:10:43.000Z,36
2018-09-28T08:11:43.000Z,36
2018-09-28T08:12:43.000Z,36
2018-09-28T08:13:43.000Z,36
2018-09-28T08:14:43.000Z,36
2018-09-28T08:15:43.000Z,36
2018-09-28T08:16:43.000Z,36
2018-09-28T08:18:43.000Z,36
2018-09-28T08:19:43.000Z,36
2018-09-28T08:20:43.000Z,36
2018-09-28T08:21:43.000Z,36
2018-09-28T08:22:43.000Z,36
2018-09-28T08:23:43.000Z,35
2018-09-28T08:25:43.000Z,35
2018-09-28T08:26:43.000Z,35
2018-09-28T08:27:43.000Z,35
2018-09-28T08:28:43.000Z,35
2018-09-28T08:30:43.000Z,35
2018-09-28T08:31:43.000Z,35
2018-09-28T08:32:43.000Z,35
2018-09-28T08:33:43.000Z,34
2018-09-28T08:34:43.000Z,34
2018-09-28T08:35:43.000Z,34
2018-09-28T08:36:43.000Z,34
2018-09-28T08:37:43.000Z,34
2018-09-28T08:38:43.000Z,34
2018-09-28T08:40:43.000Z,34
2018-09-28T08:42:43.000Z,34
2018-09-28T08:43:43.000Z,35
2018-09-28T08:44:43.000Z,34
2018-09-28T08:45:43.000Z,35
2018-09-28T08:46:43.000Z,34
2018-09-28T08:47:43.000Z,34
2018-09-28T08:48:43.000Z,34
2018-09-28T08:49:43.000Z,34
2018-09-28T08:50:43.000Z,34
2018-09-28T08:51:43.000Z,34
2018-09-28T08:52:43.000Z,34
2018-09-28T08:53:43.000Z,34
2018-09-28T08:54:43.000Z,35
2018-09-28T08:55:43.000Z,34
2018-09-28T08:56:43.000Z,35
2018-09-28T08:57:43.000Z,35
2018-09-28T08:58:43.000Z,35
2018-09-28T08:59:43.000Z,35
2018-09-28T09:00:43.000Z,35
2018-09-28T09:01:43.000Z,35
2018-09-28T09:02:43.000Z,35
2018-09-28T09:03:43.000Z,35
2018-09-28T09:04:43.000Z,35
2018-09-28T09:05:43.000Z,35
2018-09-28T09:06:43.000Z,35
2018-09-28T09:07:43.000Z,35
2018-09-28T09:08:43.000Z,35
2018-09-28T09:10:43.000Z,35
2018-09-28T09:11:43.000Z,35
2018-09-28T09:12:43.000Z,35
2018-09-28T09:13:43.000Z,35
2018-09-28T09:14:43.000Z,35
2018-09-28T09:15:43.000Z,35
2018-09-28T09:16:43.000Z,35
2018-09-28T09:17:43.000Z,35
2018-09-28T09:18:43.000Z,35
2018-09-28T09:19:43.000Z,35
2018-09-28T09:20:43.000Z,35
2018-09-28T09:21:43.000Z,35
2018-09-28T09:22:43.000Z,34
2018-09-28T09:23:43.000Z,35
2018-09-28T09:24:43.000Z,34
2018-09-28T09:25:44.000Z,34
2018-09-28T09:26:44.000Z,34
2018-09-28T09:27:44.000Z,34
2018-09-28T09:28:44.000Z,34
2018-09-28T09:30:44.000Z,34
2018-09-28T09:31:44.000Z,34
2018-09-28T09:32:44.000Z,34
2018-09-28T09:33:44.000Z,34
2018-09-28T09:34:44.000Z,33
2018-09-28T09:35:44.000Z,34
2018-09-28T09:36:44.000Z,33
2018-09-28T09:37:44.000Z,33
2018-09-28T09:38:44.000Z,33
2018-09-28T09:39:44.000Z,33
2018-09-28T09:40:44.000Z,33
2018-09-28T09:41:44.000Z,33
2018-09-28T09:42:44.000Z,33
2018-09-28T09:43:44.000Z,33
2018-09-28T09:44:44.000Z,33
2018-09-28T09:46:44.000Z,33
2018-09-28T09:47:44.000Z,33
2018-09-28T09:48:44.000Z,32
2018-09-28T09:49:44.000Z,33
2018-09-28T09:50:44.000Z,32
2018-09-28T09:51:44.000Z,32
2018-09-28T09:52:44.000Z,32
2018-09-28T09:53:43.000Z,32
2018-09-28T09:54:43.000Z,32
2018-09-28T09:55:43.000Z,32
2018-09-28T09:57:43.000Z,32
2018-09-28T09:58:43.000Z,32
2018-09-28T09:59:43.000Z,32
2018-09-28T10:00:43.000Z,32
2018-09-28T10:01:43.000Z,32
2018-09-28T10:02:43.000Z,32
2018-09-28T10:03:43.000Z,32
2018-09-28T10:04:43.000Z,32
2018-09-28T10:05:43.000Z,32
2018-09-28T10:06:43.000Z,31
2018-09-28T10:07:43.000Z,32
2018-09-28T10:08:43.000Z,31
2018-09-28T10:10:43.000Z,31
2018-09-28T10:11:43.000Z,31
2018-09-28T10:12:43.000Z,31
2018-09-28T10:13:43.000Z,31
2018-09-28T10:14:43.000Z,31
2018-09-28T10:15:43.000Z,31
2018-09-28T10:17:43.000Z,31
2018-09-28T10:18:43.000Z,31
2018-09-28T10:19:43.000Z,31
2018-09-28T10:20:43.000Z,31
2018-09-28T10:21:43.000Z,31
2018-09-28T10:22:43.000Z,31
2018-09-28T10:23:43.000Z,31
2018-09-28T10:25:43.000Z,31
2018-09-28T10:26:43.000Z,31
2018-09-28T10:28:43.000Z,31
2018-09-28T10:30:43.000Z,31
2018-09-28T10:31:43.000Z,31
2018-09-28T10:32:43.000Z,31
2018-09-28T10:33:43.000Z,31
2018-09-28T10:34:43.000Z,31
2018-09-28T10:35:43.000Z,31
2018-09-28T10:36:43.000Z,31
2018-09-28T10:37:43.000Z,31
2018-09-28T10:38:43.000Z,31
2018-09-28T10:39:43.000Z,31
2018-09-28T10:40:43.000Z,31
2018-09-28T10:41:43.000Z,31
2018-09-28T10:42:43.000Z,31
2018-09-28T10:43:43.000Z,31
2018-09-28T10:44:43.000Z,31
2018-09-28T10:45:43.000Z,31
2018-09-28T10:46:43.000Z,31
2018-09-28T10:47:43.000Z,31
2018-09-28T10:48:43.000Z,31
2018-09-28T10:49:43.000Z,31
2018-09-28T10:50:43.000Z,31
2018-09-28T10:52:43.000Z,31
2018-09-28T10:53:43.000Z,31
2018-09-28T10:54:43.000Z,31
2018-09-28T10:55:43.000Z,31
2018-09-28T10:56:43.000Z,31
2018-09-28T10:57:44.000Z,31
2018-09-28T10:58:44.000Z,31
2018-09-28T10:59:44.000Z,31
2018-09-28T11:00:44.000Z,31
2018-09-28T11:01:44.000Z,31
2018-09-28T11:02:44.000Z,31
2018-09-28T11:03:44.000Z,31
2018-09-28T11:04:44.000Z,31
2018-09-28T11:05:44.000Z,31
2018-09-28T11:06:44.000Z,31
2018-09-28T11:07:44.000Z,31
2018-09-28T11:08:44.000Z,31
2018-09-28T11:09:44.000Z,31
2018-09-28T11:10:44.000Z,31
2018-09-28T11:11:44.000Z,31
2018-09-28T11:12:44.000Z,31
2018-09-28T11:13:44.000Z,31
2018-09-28T11:14:44.000Z,31
2018-09-28T11:15:44.000Z,30
2018-09-28T11:16:44.000Z,31
2018-09-28T11:17:44.000Z,31
2018-09-28T11:18:44.000Z,31
2018-09-28T11:19:44.000Z,31
2018-09-28T11:21:44.000Z,30
2018-09-28T11:23:44.000Z,30
2018-09-28T11:24:44.000Z,30
2018-09-28T11:25:44.000Z,31
2018-09-28T11:26:44.000Z,30
2018-09-28T11:28:44.000Z,30
2018-09-28T11:29:44.000Z,30
2018-09-28T11:30:44.000Z,30
2018-09-28T11:31:44.000Z,30
2018-09-28T11:32:44.000Z,30
2018-09-28T11:33:44.000Z,30
2018-09-28T11:34:44.000Z,30
2018-09-28T11:35:44.000Z,30
2018-09-28T11:36:44.000Z,30
2018-09-28T11:37:44.000Z,30
2018-09-28T11:38:44.000Z,30
2018-09-28T11:39:44.000Z,30
2018-09-28T11:40:44.000Z,30
2018-09-28T11:42:44.000Z,30
2018-09-28T11:43:44.000Z,30
2018-09-28T11:44:44.000Z,30
2018-09-28T11:45:44.000Z,30
2018-09-28T11:46:44.000Z,30
2018-09-28T11:47:44.000Z,30
2018-09-28T11:48:44.000Z,30
2018-09-28T11:49:44.000Z,30
2018-09-28T11:50:44.000Z,30
2018-09-28T11:51:44.000Z,30
2018-09-28T11:53:44.000Z,30
2018-09-28T11:54:44.000Z,30
2018-09-28T11:55:44.000Z,30
2018-09-28T11:56:44.000Z,30
2018-09-28T11:57:44.000Z,30
2018-09-28T11:59:44.000Z,30
2018-09-28T12:00:44.000Z,30
2018-09-28T12:01:44.000Z,30
2018-09-28T12:03:44.000Z,30
2018-09-28T12:04:44.000Z,30
2018-09-28T12:05:44.000Z,30
2018-09-28T12:06:44.000Z,30
2018-09-28T12:08:44.000Z,30
2018-09-28T12:09:44.000Z,30
2018-09-28T12:10:44.000Z,30
2018-09-28T12:11:44.000Z,30
2018-09-28T12:12:44.000Z,30
2018-09-28T12:13:44.000Z,30
2018-09-28T12:14:44.000Z,30
2018-09-28T12:15:44.000Z,30
2018-09-28T12:16:44.000Z,30
2018-09-28T12:17:44.000Z,30
2018-09-28T12:18:44.000Z,30
2018-09-28T12:19:44.000Z,30
2018-09-28T12:20:44.000Z,30
2018-09-28T12:21:44.000Z,30
2018-09-28T12:22:44.000Z,30
2018-09-28T12:23:44.000Z,29
2018-09-28T12:24:44.000Z,29
2018-09-28T12:25:44.000Z,29
2018-09-28T12:26:44.000Z,29
2018-09-28T12:27:44.000Z,29
2018-09-28T12:28:44.000Z,29
2018-09-28T12:29:44.000Z,29
2018-09-28T12:31:44.000Z,29
2018-09-28T12:32:44.000Z,28
2018-09-28T12:33:44.000Z,28
2018-09-28T12:34:44.000Z,28
2018-09-28T12:35:44.000Z,28
2018-09-28T12:36:44.000Z,28
2018-09-28T12:37:44.000Z,28
2018-09-28T12:38:44.000Z,28
2018-09-28T12:39:44.000Z,28
2018-09-28T12:40:44.000Z,28
2018-09-28T12:42:44.000Z,28
2018-09-28T12:43:44.000Z,28
2018-09-28T12:44:44.000Z,28
2018-09-28T12:45:44.000Z,28
2018-09-28T12:46:44.000Z,28
2018-09-28T12:47:44.000Z,28
2018-09-28T12:48:44.000Z,28
2018-09-28T12:49:44.000Z,28
2018-09-28T12:50:44.000Z,28
2018-09-28T12:51:44.000Z,28
2018-09-28T12:52:44.000Z,28
2018-09-28T12:53:44.000Z,28
2018-09-28T12:54:44.000Z,28
2018-09-28T12:56:44.000Z,28
2018-09-28T12:57:44.000Z,28
2018-09-28T12:59:44.000Z,28
2018-09-28T13:00:44.000Z,28
2018-09-28T13:01:44.000Z,28
2018-09-28T13:02:44.000Z,28
2018-09-28T13:03:44.000Z,28
2018-09-28T13:04:44.000Z,28
2018-09-28T13:05:44.000Z,28
2018-09-28T13:06:44.000Z,28
2018-09-28T13:07:44.000Z,28
2018-09-28T13:08:44.000Z,28
2018-09-28T13:09:44.000Z,27
2018-09-28T13:10:44.000Z,27
2018-09-28T13:12:44.000Z,27
2018-09-28T13:13:44.000Z,28
2018-09-28T13:14:44.000Z,28
2018-09-28T13:15:44.000Z,28
2018-09-28T13:16:44.000Z,28
2018-09-28T13:17:44.000Z,28
2018-09-28T13:19:44.000Z,28
2018-09-28T13:20:44.000Z,28
2018-09-28T13:21:44.000Z,28
2018-09-28T13:22:44.000Z,29
2018-09-28T13:23:44.000Z,29
2018-09-28T13:25:44.000Z,29
2018-09-28T13:26:44.000Z,29
2018-09-28T13:27:44.000Z,29
2018-09-28T13:28:44.000Z,29
2018-09-28T13:29:44.000Z,29
2018-09-28T13:30:44.000Z,29
2018-09-28T13:31:44.000Z,29
2018-09-28T13:32:44.000Z,29
2018-09-28T13:33:44.000Z,29
2018-09-28T13:34:44.000Z,29
2018-09-28T13:35:44.000Z,29
2018-09-28T13:36:44.000Z,29
2018-09-28T13:37:44.000Z,29
2018-09-28T13:38:44.000Z,29
2018-09-28T13:39:44.000Z,29
2018-09-28T13:40:44.000Z,29
2018-09-28T13:41:44.000Z,29
2018-09-28T13:42:44.000Z,29
2018-09-28T13:43:44.000Z,29
2018-09-28T13:44:44.000Z,29
2018-09-28T13:46:44.000Z,29
2018-09-28T13:47:44.000Z,29
2018-09-28T13:48:44.000Z,29
2018-09-28T13:49:44.000Z,29
2018-09-28T13:50:44.000Z,29
2018-09-28T13:51:44.000Z,29
2018-09-28T13:52:44.000Z,29
2018-09-28T13:53:44.000Z,29
2018-09-28T13:54:44.000Z,29
2018-09-28T13:55:44.000Z,29
2018-09-28T13:56:44.000Z,29
2018-09-28T13:57:44.000Z,29
2018-09-28T13:58:44.000Z,29
2018-09-28T13:59:44.000Z,29
2018-09-28T14:00:44.000Z,29
2018-09-28T14:01:44.000Z,29
2018-09-28T14:02:44.000Z,29
2018-09-28T14:03:44.000Z,29
2018-09-28T14:04:44.000Z,29
2018-09-28T14:14:30.000Z,29
2018-09-28T14:15:30.000Z,29
2018-09-28T14:16:30.000Z,29
2018-09-28T14:17:30.000Z,29
2018-09-28T14:18:30.000Z,29
2018-09-28T14:19:30.000Z,29
2018-09-28T14:20:30.000Z,29
2018-09-28T14:21:30.000Z,29
2018-09-28T14:22:30.000Z,29
2018-09-28T14:24:30.000Z,29
2018-09-28T14:25:30.000Z,29
2018-09-28T14:26:30.000Z,29
2018-09-28T14:27:30.000Z,29
2018-09-28T14:28:30.000Z,29
2018-09-28T14:29:30.000Z,29
2018-09-28T14:31:30.000Z,29
2018-09-28T14:32:30.000Z,29
2018-09-28T14:33:30.000Z,29
2018-09-28T14:34:30.000Z,29
2018-09-28T14:35:30.000Z,29
2018-09-28T14:36:30.000Z,29
2018-09-28T14:37:30.000Z,29
2018-09-28T14:39:30.000Z,29
2018-09-28T14:41:30.000Z,29
2018-09-28T14:42:30.000Z,29
2018-09-28T14:43:30.000Z,29
2018-09-28T14:44:30.000Z,29
2018-09-28T14:46:30.000Z,29
2018-09-28T14:47:30.000Z,29
2018-09-28T14:49:30.000Z,29
2018-09-28T14:50:30.000Z,29
2018-09-28T14:51:30.000Z,29
2018-09-28T14:52:30.000Z,29
2018-09-28T14:54:30.000Z,29
2018-09-28T14:55:30.000Z,29
2018-09-28T14:56:30.000Z,29
2018-09-28T14:57:30.000Z,29
2018-09-28T14:58:30.000Z,29
2018-09-28T14:59:30.000Z,29
2018-09-28T15:00:30.000Z,29
2018-09-28T15:01:30.000Z,29
2018-09-28T15:02:30.000Z,29
2018-09-28T15:03:30.000Z,29
2018-09-28T15:04:30.000Z,29
2018-09-28T15:05:30.000Z,29
2018-09-28T15:06:30.000Z,29
2018-09-28T15:08:30.000Z,29
2018-09-28T15:09:30.000Z,29
2018-09-28T15:10:30.000Z,29
2018-09-28T15:11:30.000Z,29
2018-09-28T15:12:30.000Z,29
2018-09-28T15:13:30.000Z,29
2018-09-28T15:14:30.000Z,29
2018-09-28T15:15:30.000Z,29
2018-09-28T15:16:30.000Z,29
2018-09-28T15:17:30.000Z,29
2018-09-28T15:18:30.000Z,29
2018-09-28T15:19:30.000Z,29
2018-09-28T15:20:30.000Z,29
2018-09-28T15:21:30.000Z,29
2018-09-28T15:22:30.000Z,29
2018-09-28T15:23:30.000Z,29
2018-09-28T15:24:30.000Z,29
2018-09-28T15:25:30.000Z,29
2018-09-28T15:26:30.000Z,29
2018-09-28T15:28:30.000Z,29
2018-09-28T15:29:30.000Z,29
2018-09-28T15:30:30.000Z,29
2018-09-28T15:31:30.000Z,29
2018-09-28T15:32:30.000Z,29
2018-09-28T15:34:30.000Z,29
2018-09-28T15:35:30.000Z,29
2018-09-28T15:36:30.000Z,29
2018-09-28T15:37:30.000Z,29
2018-09-28T15:38:30.000Z,29
2018-09-28T15:39:30.000Z,29
2018-09-28T15:40:30.000Z,29
2018-09-28T15:41:30.000Z,29
2018-09-28T15:42:30.000Z,29
2018-09-28T15:43:30.000Z,29
2018-09-28T15:44:30.000Z,29
2018-09-28T15:45:30.000Z,29
2018-09-28T15:46:30.000Z,29
2018-09-28T15:47:30.000Z,29
2018-09-28T15:48:30.000Z,29
2018-09-28T15:49:30.000Z,29
2018-09-28T15:50:30.000Z,29
2018-09-28T15:51:30.000Z,29
2018-09-28T15:53:30.000Z,29
2018-09-28T15:54:30.000Z,29
2018-09-28T15:55:30.000Z,29
2018-09-28T15:56:30.000Z,29
2018-09-28T15:57:30.000Z,29
2018-09-28T15:58:30.000Z,29
2018-09-28T15:59:30.000Z,29
2018-09-28T16:00:30.000Z,29
2018-09-28T16:01:30.000Z,29
2018-09-28T16:02:30.000Z,29
2018-09-28T16:03:30.000Z,29
2018-09-28T16:04:30.000Z,29